Time;durP1;ratioP1;P1;durP2;ratioP2;P2;SDS_P1;SDS_P2;PMS_P1;PMS_P2;Temp;Humidity;BMP_temperature;BMP_pressure;BME280_temperature;BME280_humidity;BME280_pressure;Samples;Min_cycle;Max_cycle;Signal;HPM_P1;HPM_P2
2022/09/05 00:01:40;;;;;;;5.00;1.70;;;19.30;99.90;;;;;;5066276;28;25081;-74
2022/09/05 00:04:12;;;;;;;;;;;19.30;99.90;;;;;;5062491;28;25054;-73
2022/09/05 00:06:45;;;;;;;5.15;2.20;;;19.30;99.90;;;;;;5058959;28;24063;-72
2022/09/05 00:09:44;;;;;;;3.55;1.88;;;19.40;99.90;;;;;;5049616;28;25090;-73
2022/09/05 00:12:10;;;;;;;6.20;2.08;;;19.40;99.90;;;;;;5055357;28;25183;-72
2022/09/05 00:14:52;;;;;;;5.65;2.22;;;19.40;99.90;;;;;;5058176;28;25091;-72
2022/09/05 00:17:36;;;;;;;2.80;1.95;;;19.40;99.90;;;;;;5062552;28;25104;-74
2022/09/05 00:20:11;;;;;;;3.97;2.20;;;19.40;99.90;;;;;;5051714;28;25045;-73
2022/09/05 00:22:49;;;;;;;3.72;1.90;;;19.40;99.90;;;;;;5056042;28;25052;-73
2022/09/05 00:25:33;;;;;;;6.85;2.10;;;19.50;99.90;;;;;;5061898;28;25080;-73
2022/09/05 00:28:10;;;;;;;2.42;1.90;;;19.50;99.90;;;;;;5058713;28;25075;-72
2022/09/05 00:31:06;;;;;;;2.50;2.30;;;19.50;99.90;;;;;;5068366;28;25103;-72
2022/09/05 00:33:57;;;;;;;5.63;2.30;;;19.40;99.90;;;;;;5069568;28;25093;-73
2022/09/05 00:36:33;;;;;;;2.13;1.90;;;19.40;99.90;;;;;;5088367;28;25072;-73
2022/09/05 00:39:10;;;;;;;2.35;1.92;;;19.40;99.90;;;;;;5086729;28;25079;-72
2022/09/05 00:41:37;;;;;;;3.53;2.20;;;19.30;99.90;;;;;;5068316;28;25074;-73
2022/09/05 00:44:03;;;;;;;4.78;2.35;;;19.30;99.90;;;;;;5070697;28;25055;-73
2022/09/05 00:46:35;;;;;;;4.25;2.20;;;19.40;99.90;;;;;;5068264;28;25090;-74
2022/09/05 00:49:29;;;;;;;5.10;2.08;;;19.40;99.90;;;;;;5072280;28;25102;-73
2022/09/05 00:52:33;;;;;;;3.88;2.45;;;19.30;99.90;;;;;;5079191;28;25059;-73
2022/09/05 00:55:17;;;;;;;2.97;2.10;;;19.30;99.90;;;;;;5063530;28;25057;-72
2022/09/05 00:58:02;;;;;;;2.38;1.95;;;19.20;99.90;;;;;;5056581;28;25150;-73
2022/09/05 01:00:53;;;;;;;5.85;2.40;;;19.20;99.90;;;;;;5065650;28;25100;-73
2022/09/05 01:03:26;;;;;;;3.30;2.10;;;19.30;99.90;;;;;;5073231;28;25068;-73
2022/09/05 01:06:13;;;;;;;6.50;2.40;;;19.30;99.90;;;;;;5064425;28;25150;-72
2022/09/05 01:08:56;;;;;;;2.70;2.17;;;19.20;99.90;;;;;;5063937;28;26152;-74
2022/09/05 01:11:26;;;;;;;4.03;2.13;;;19.20;99.90;;;;;;5066844;28;25088;-71
2022/09/05 01:14:34;;;;;;;5.32;2.60;;;19.10;99.90;;;;;;5075256;28;25076;-70
2022/09/05 01:17:33;;;;;;;3.17;2.67;;;19.10;99.90;;;;;;5059482;28;25102;-73
2022/09/05 01:20:40;;;;;;;5.15;2.42;;;19.10;99.90;;;;;;5073681;28;25064;-72
2022/09/05 01:23:46;;;;;;;6.55;2.50;;;19.10;99.90;;;;;;5023734;28;25081;-73
2022/09/05 01:26:23;;;;;;;6.20;3.03;;;19.00;99.90;;;;;;5062281;28;25067;-74
2022/09/05 01:29:07;;;;;;;4.25;2.33;;;19.00;99.90;;;;;;5059773;28;26186;-73
2022/09/05 01:32:00;;;;;;;8.55;3.15;;;19.10;99.90;;;;;;5065154;28;25105;-73
2022/09/05 01:34:37;;;;;;;;;;;19.00;99.90;;;;;;5063814;28;28086;-73
2022/09/05 01:37:21;;;;;;;8.68;2.88;;;19.10;99.90;;;;;;5064328;28;24081;-74
2022/09/05 01:40:03;;;;;;;6.13;3.33;;;19.00;99.90;;;;;;5070119;28;25143;-73
2022/09/05 01:43:11;;;;;;;5.25;3.17;;;19.00;99.90;;;;;;5059147;28;25125;-72
2022/09/05 01:45:59;;;;;;;5.97;3.40;;;19.00;99.90;;;;;;5039163;28;25084;-72
2022/09/05 01:48:52;;;;;;;7.60;2.70;;;19.00;99.90;;;;;;5051127;28;25165;-75
2022/09/05 01:51:25;;;;;;;5.90;3.05;;;18.90;99.90;;;;;;5054577;28;25059;-72
2022/09/05 01:54:14;;;;;;;4.15;3.05;;;18.90;99.90;;;;;;5057108;28;25111;-72
2022/09/05 01:56:50;;;;;;;8.63;3.17;;;18.90;99.90;;;;;;5061752;28;25053;-70
2022/09/05 01:59:36;;;;;;;4.85;3.30;;;18.90;99.90;;;;;;5064906;28;25110;-73
2022/09/05 02:02:12;;;;;;;3.58;3.17;;;18.80;99.90;;;;;;5058628;28;25148;-71
2022/09/05 02:04:49;;;;;;;5.15;3.28;;;18.80;99.90;;;;;;5053346;28;25063;-73
2022/09/05 02:07:50;;;;;;;4.25;3.15;;;18.70;99.90;;;;;;5065126;28;25113;-74
2022/09/05 02:10:33;;;;;;;13.57;4.47;;;18.70;99.90;;;;;;5066730;28;25123;-73
2022/09/05 02:13:33;;;;;;;6.35;3.80;;;18.80;99.90;;;;;;5058900;28;25105;-73
2022/09/05 02:16:22;;;;;;;9.63;3.95;;;18.70;99.90;;;;;;5051279;28;25067;-72
2022/09/05 02:19:08;;;;;;;8.20;3.22;;;18.70;99.90;;;;;;5061061;28;25067;-74
2022/09/05 02:21:39;;;;;;;7.82;3.30;;;18.70;99.90;;;;;;5062249;28;25065;-73
2022/09/05 02:24:12;;;;;;;11.05;3.55;;;18.60;99.90;;;;;;5061179;28;25103;-73
2022/09/05 02:27:05;;;;;;;7.03;3.72;;;18.60;99.90;;;;;;5057185;28;25061;-73
2022/09/05 02:29:54;;;;;;;6.47;4.10;;;18.60;99.90;;;;;;5057204;28;25094;-74
2022/09/05 02:32:42;;;;;;;8.60;3.92;;;18.50;99.90;;;;;;5059380;28;25053;-73
2022/09/05 02:35:30;;;;;;;6.90;3.92;;;18.50;99.90;;;;;;5060687;28;25069;-73
2022/09/05 02:38:23;;;;;;;7.95;4.22;;;18.50;99.90;;;;;;5060083;28;25073;-73
2022/09/05 02:41:07;;;;;;;7.95;4.63;;;18.50;99.90;;;;;;5059826;28;25116;-74
2022/09/05 02:43:54;;;;;;;7.53;4.63;;;18.50;99.90;;;;;;5057967;28;25072;-74
2022/09/05 02:46:27;;;;;;;6.82;4.25;;;18.50;99.90;;;;;;5062713;28;25080;-73
2022/09/05 02:49:26;;;;;;;8.77;4.00;;;18.40;99.90;;;;;;5054720;28;25190;-72
2022/09/05 02:52:00;;;;;;;6.28;4.28;;;18.40;99.90;;;;;;5054856;28;25061;-72
2022/09/05 02:54:32;;;;;;;6.72;5.07;;;18.40;99.90;;;;;;5052347;28;25056;-73
2022/09/05 02:57:07;;;;;;;9.95;4.65;;;18.40;99.90;;;;;;5053040;28;25067;-73
2022/09/05 03:00:03;;;;;;;11.93;4.90;;;18.40;99.90;;;;;;5063195;28;25070;-72
2022/09/05 03:02:42;;;;;;;8.35;4.80;;;18.40;99.90;;;;;;5083380;28;25059;-72
2022/09/05 03:05:29;;;;;;;7.65;4.68;;;18.30;99.90;;;;;;5063717;28;25094;-74
2022/09/05 03:08:29;;;;;;;10.38;5.10;;;18.30;99.90;;;;;;5064876;28;25093;-74
2022/09/05 03:11:32;;;;;;;7.82;4.82;;;18.20;99.90;;;;;;5061317;28;25068;-73
2022/09/05 03:14:10;;;;;;;8.95;5.63;;;18.20;99.90;;;;;;5063893;28;25083;-73
2022/09/05 03:16:38;;;;;;;9.70;5.35;;;18.20;99.90;;;;;;5067484;28;25096;-73
2022/09/05 03:19:29;;;;;;;9.52;5.13;;;18.20;99.90;;;;;;5062565;28;25128;-73
2022/09/05 03:22:21;;;;;;;8.13;5.40;;;18.10;99.90;;;;;;5047347;28;25066;-72
2022/09/05 03:25:21;;;;;;;9.10;5.07;;;18.20;99.90;;;;;;5056621;28;25118;-73
2022/09/05 03:28:11;;;;;;;9.43;5.18;;;18.10;99.90;;;;;;5057641;28;25092;-72
2022/09/05 03:30:58;;;;;;;10.05;5.15;;;18.10;99.90;;;;;;5060845;28;25161;-73
2022/09/05 03:33:46;;;;;;;6.88;5.22;;;18.20;99.90;;;;;;5056921;28;25101;-72
2022/09/05 03:36:39;;;;;;;10.95;5.57;;;18.20;99.90;;;;;;5063246;28;25079;-73
2022/09/05 03:39:34;;;;;;;10.05;5.35;;;18.20;99.90;;;;;;5047168;28;25143;-73
2022/09/05 03:42:16;;;;;;;8.18;5.55;;;18.20;99.90;;;;;;5060157;28;25079;-73
2022/09/05 03:44:48;;;;;;;8.20;5.30;;;18.10;99.90;;;;;;5052578;28;25150;-73
2022/09/05 03:47:13;;;;;;;11.75;5.78;;;18.00;99.90;;;;;;5062798;28;25129;-73
2022/09/05 03:50:04;;;;;;;8.32;5.68;;;18.10;99.90;;;;;;5053564;28;25089;-73
2022/09/05 03:52:55;;;;;;;7.00;5.15;;;18.00;99.90;;;;;;5057782;28;25065;-73
2022/09/05 03:55:31;;;;;;;6.93;5.20;;;18.00;99.90;;;;;;5050747;28;25058;-74
2022/09/05 03:58:13;;;;;;;10.45;5.45;;;18.00;99.90;;;;;;5066239;28;25062;-73
2022/09/05 04:00:45;;;;;;;8.90;5.78;;;17.90;99.90;;;;;;5057107;28;25077;-73
2022/09/05 04:03:26;;;;;;;10.02;5.40;;;17.90;99.90;;;;;;5063702;28;25075;-73
2022/09/05 04:06:12;;;;;;;9.80;5.95;;;17.90;99.90;;;;;;5056752;28;25072;-73
2022/09/05 04:09:17;;;;;;;11.30;6.18;;;17.80;99.90;;;;;;5059936;28;25070;-73
2022/09/05 04:11:49;;;;;;;12.38;5.38;;;17.90;99.90;;;;;;5032272;28;25098;-74
2022/09/05 04:14:50;;;;;;;14.27;5.95;;;17.80;99.90;;;;;;5059727;28;25050;-73
2022/09/05 04:17:34;;;;;;;7.32;5.38;;;17.80;99.90;;;;;;5057571;28;25107;-74
2022/09/05 04:20:32;;;;;;;10.90;5.72;;;17.80;99.90;;;;;;5068810;28;25061;-72
2022/09/05 04:23:23;;;;;;;10.00;6.10;;;17.70;99.90;;;;;;5059961;28;25062;-73
2022/09/05 04:26:34;;;;;;;10.98;5.47;;;17.70;99.90;;;;;;5065909;28;25083;-72
2022/09/05 04:29:19;;;;;;;14.52;7.13;;;17.70;99.90;;;;;;5059092;28;25048;-72
2022/09/05 04:31:55;;;;;;;10.23;5.93;;;17.70;99.90;;;;;;5051980;28;25064;-72
2022/09/05 04:34:53;;;;;;;10.43;5.45;;;17.80;99.90;;;;;;5056592;28;25070;-74
2022/09/05 04:37:45;;;;;;;9.10;5.43;;;17.90;99.90;;;;;;5064881;28;25095;-72
2022/09/05 04:40:32;;;;;;;11.90;6.38;;;17.90;99.90;;;;;;5063462;28;25094;-73
2022/09/05 04:43:05;;;;;;;9.80;5.82;;;17.80;99.90;;;;;;5056351;28;25074;-73
2022/09/05 04:45:40;;;;;;;9.60;5.72;;;17.90;99.90;;;;;;5062990;28;25051;-72
2022/09/05 04:48:10;;;;;;;9.00;5.93;;;17.80;99.90;;;;;;5057735;28;25065;-73
2022/09/05 04:51:00;;;;;;;8.85;5.35;;;17.80;99.90;;;;;;5069675;28;25090;-73
2022/09/05 04:53:39;;;;;;;9.32;5.38;;;17.80;99.90;;;;;;5066237;28;25067;-71
2022/09/05 04:56:16;;;;;;;13.38;6.07;;;17.80;99.90;;;;;;5056112;28;25045;-72
2022/09/05 04:58:56;;;;;;;9.55;6.05;;;17.80;99.90;;;;;;5067068;28;25102;-72
2022/09/05 05:01:30;;;;;;;11.63;5.35;;;17.80;99.90;;;;;;5057368;28;25048;-73
2022/09/05 05:04:08;;;;;;;12.95;5.80;;;17.70;99.90;;;;;;5067809;28;25053;-71
2022/09/05 05:06:39;;;;;;;11.77;5.82;;;17.70;99.90;;;;;;5067209;28;25076;-72
2022/09/05 05:09:14;;;;;;;15.00;6.25;;;17.70;99.90;;;;;;5061125;28;25096;-71
2022/09/05 05:11:54;;;;;;;10.00;6.18;;;17.70;99.90;;;;;;5069975;28;25051;-72
2022/09/05 05:14:32;;;;;;;9.13;6.05;;;17.70;99.90;;;;;;5074687;28;25075;-71
2022/09/05 05:17:23;;;;;;;12.15;6.00;;;17.70;99.90;;;;;;5064005;28;25073;-71
2022/09/05 05:19:55;;;;;;;11.55;5.88;;;17.70;99.90;;;;;;5064955;28;25064;-72
2022/09/05 05:22:21;;;;;;;12.60;6.13;;;17.80;99.90;;;;;;5067931;28;25059;-72
2022/09/05 05:24:54;;;;;;;13.45;6.22;;;17.80;99.90;;;;;;5055985;28;25065;-70
2022/09/05 05:27:24;;;;;;;14.30;7.13;;;17.80;99.90;;;;;;5065042;28;25084;-74
2022/09/05 05:30:00;;;;;;;14.20;6.00;;;17.90;99.90;;;;;;5059446;28;25048;-71
2022/09/05 05:32:45;;;;;;;12.70;6.32;;;18.00;99.90;;;;;;5067394;28;25053;-71
2022/09/05 05:35:40;;;;;;;11.20;6.78;;;17.90;99.90;;;;;;5058300;28;25069;-73
2022/09/05 05:38:27;;;;;;;9.48;6.28;;;17.90;99.90;;;;;;5059517;28;25074;-72
2022/09/05 05:41:03;;;;;;;12.63;6.10;;;17.90;99.90;;;;;;5056474;28;25108;-71
2022/09/05 05:43:37;;;;;;;11.32;6.38;;;18.00;99.90;;;;;;5071179;28;25142;-74
2022/09/05 05:46:03;;;;;;;13.90;6.32;;;18.00;99.90;;;;;;5057003;28;25074;-71
2022/09/05 05:48:35;;;;;;;10.25;5.95;;;18.00;99.90;;;;;;5058597;28;25074;-75
2022/09/05 05:51:22;;;;;;;8.60;6.13;;;18.10;99.90;;;;;;5060118;28;25062;-70
2022/09/05 05:54:09;;;;;;;11.00;6.18;;;18.10;99.90;;;;;;5056941;28;25188;-72
2022/09/05 05:57:15;;;;;;;10.27;6.38;;;18.10;99.90;;;;;;5057446;28;25119;-71
2022/09/05 06:00:14;;;;;;;11.20;6.90;;;18.20;99.90;;;;;;5062641;28;25162;-71
2022/09/05 06:02:56;;;;;;;12.45;5.93;;;18.40;99.90;;;;;;5056690;28;25063;-71
2022/09/05 06:05:44;;;;;;;9.27;6.28;;;18.40;99.90;;;;;;5056435;28;25054;-71
2022/09/05 06:08:21;;;;;;;11.20;6.57;;;18.50;99.90;;;;;;5060884;28;25061;-69
2022/09/05 06:11:22;;;;;;;9.00;6.15;;;18.60;99.90;;;;;;5067506;28;25150;-70
2022/09/05 06:14:09;;;;;;;9.20;6.10;;;18.70;99.90;;;;;;5056671;28;25057;-72
2022/09/05 06:17:07;;;;;;;7.05;5.60;;;18.90;99.90;;;;;;5066370;28;25142;-72
2022/09/05 06:19:33;;;;;;;9.88;5.75;;;19.00;99.90;;;;;;5062170;28;25059;-71
2022/09/05 06:22:20;;;;;;;13.85;6.13;;;19.10;99.90;;;;;;5073243;28;25050;-72
2022/09/05 06:25:06;;;;;;;9.90;5.63;;;19.20;99.90;;;;;;5065398;28;25074;-72
2022/09/05 06:27:50;;;;;;;11.13;6.28;;;19.30;99.90;;;;;;5064512;28;25062;-72
2022/09/05 06:30:19;;;;;;;14.25;6.57;;;19.40;99.90;;;;;;5059317;28;25090;-72
2022/09/05 06:33:06;;;;;;;10.65;5.63;;;19.40;99.90;;;;;;5063053;28;25084;-74
2022/09/05 06:35:39;;;;;;;8.98;5.60;;;19.50;99.90;;;;;;5054240;28;25060;-71
2022/09/05 06:38:44;;;;;;;8.63;5.72;;;19.60;99.90;;;;;;5067949;28;25063;-72
2022/09/05 06:41:38;;;;;;;9.35;5.22;;;19.70;99.90;;;;;;5056626;28;25076;-73
2022/09/05 06:44:45;;;;;;;11.48;5.35;;;19.80;99.90;;;;;;5055893;28;25069;-72
2022/09/05 06:47:18;;;;;;;8.63;5.93;;;19.90;99.90;;;;;;5056622;28;25063;-73
2022/09/05 06:50:04;;;;;;;9.80;5.72;;;20.00;99.90;;;;;;5060533;28;25074;-72
2022/09/05 06:53:23;;;;;;;7.43;5.03;;;20.10;99.90;;;;;;5056269;28;25059;-72
2022/09/05 06:55:57;;;;;;;8.77;6.05;;;20.20;99.90;;;;;;5048061;28;25056;-73
2022/09/05 06:58:51;;;;;;;11.38;5.75;;;20.20;99.90;;;;;;5070325;28;25058;-73
2022/09/05 07:01:46;;;;;;;14.68;5.50;;;20.10;99.90;;;;;;5044352;28;25130;-71
2022/09/05 07:04:31;;;;;;;10.18;5.78;;;20.20;99.90;;;;;;5054571;28;25139;-72
2022/09/05 07:07:26;;;;;;;7.18;5.22;;;20.30;99.90;;;;;;5052410;28;25077;-72
2022/09/05 07:10:03;;;;;;;8.32;5.57;;;20.40;99.90;;;;;;5055185;28;25130;-72
2022/09/05 07:12:52;;;;;;;11.38;5.32;;;20.50;99.90;;;;;;5059304;28;25085;-72
2022/09/05 07:15:37;;;;;;;9.30;5.53;;;20.60;99.90;;;;;;5056714;28;25061;-73
2022/09/05 07:18:08;;;;;;;11.50;5.10;;;20.80;99.90;;;;;;5060823;28;25100;-72
2022/09/05 07:20:57;;;;;;;8.93;4.88;;;20.90;99.90;;;;;;5065542;28;25068;-72
2022/09/05 07:24:01;;;;;;;8.30;4.85;;;21.00;99.90;;;;;;5071611;28;25068;-72
2022/09/05 07:26:31;;;;;;;7.40;4.80;;;21.10;99.90;;;;;;5051619;28;25056;-73
2022/09/05 07:29:02;;;;;;;12.30;4.30;;;21.40;99.90;;;;;;5069498;28;25095;-72
2022/09/05 07:31:32;;;;;;;10.63;4.22;;;21.60;99.90;;;;;;5057496;28;25067;-73
2022/09/05 07:34:16;;;;;;;6.32;3.92;;;22.00;99.90;;;;;;5072008;28;25095;-72
2022/09/05 07:36:46;;;;;;;7.35;4.30;;;22.10;99.90;;;;;;5058347;28;25082;-73
2022/09/05 07:39:17;;;;;;;5.22;3.72;;;22.10;99.90;;;;;;5053552;28;25138;-73
2022/09/05 07:41:50;;;;;;;5.25;3.78;;;22.20;99.90;;;;;;5055540;28;25053;-73
2022/09/05 07:44:30;;;;;;;9.07;3.97;;;22.30;99.90;;;;;;5061419;28;25066;-73
2022/09/05 07:47:05;;;;;;;6.15;4.03;;;22.30;99.90;;;;;;5055817;28;25085;-72
2022/09/05 07:49:34;;;;;;;10.13;3.30;;;22.50;99.90;;;;;;5064506;28;25073;-72
2022/09/05 07:52:22;;;;;;;12.13;4.40;;;22.60;99.90;;;;;;5055804;28;25075;-72
2022/09/05 07:54:51;;;;;;;5.47;3.70;;;22.70;99.90;;;;;;5052276;28;25113;-73
2022/09/05 07:57:40;;;;;;;9.15;3.35;;;22.80;99.90;;;;;;5055871;28;25122;-72
2022/09/05 08:00:10;;;;;;;3.88;2.55;;;22.80;99.90;;;;;;5062127;28;25138;-74
2022/09/05 08:02:45;;;;;;;5.18;3.17;;;22.80;99.90;;;;;;5064989;28;25053;-73
2022/09/05 08:05:18;;;;;;;7.30;3.60;;;22.90;99.90;;;;;;5056450;28;25168;-73
2022/09/05 08:07:50;;;;;;;5.13;3.03;;;22.80;99.90;;;;;;5057765;28;25075;-72
2022/09/05 08:10:32;;;;;;;4.22;2.80;;;22.80;99.90;;;;;;5063147;28;25078;-72
2022/09/05 08:13:06;;;;;;;4.43;2.65;;;22.80;99.90;;;;;;5058648;28;25138;-73
2022/09/05 08:15:32;;;;;;;5.53;2.78;;;22.80;99.90;;;;;;5065412;28;25093;-73
2022/09/05 08:18:13;;;;;;;9.00;3.13;;;22.90;99.90;;;;;;5062675;28;25140;-70
2022/09/05 08:20:48;;;;;;;4.53;3.03;;;23.20;99.90;;;;;;5050112;28;25066;-72
2022/09/05 08:23:48;;;;;;;4.72;2.88;;;23.60;99.90;;;;;;5053898;28;25080;-73
2022/09/05 08:26:36;;;;;;;7.15;3.15;;;23.90;99.90;;;;;;5064044;28;25095;-72
2022/09/05 08:29:33;;;;;;;8.43;2.65;;;24.30;99.90;;;;;;5060348;28;25071;-72
2022/09/05 08:32:08;;;;;;;5.68;2.30;;;24.80;99.90;;;;;;5055672;28;25076;-70
2022/09/05 08:34:47;;;;;;;5.50;2.80;;;25.40;99.90;;;;;;5063637;28;25138;-72
2022/09/05 08:37:18;;;;;;;2.20;2.00;;;25.40;99.90;;;;;;5059193;28;25063;-72
2022/09/05 08:39:48;;;;;;;6.65;2.40;;;25.10;99.90;;;;;;5064908;28;25070;-74
2022/09/05 08:42:38;;;;;;;10.43;3.72;;;24.90;99.90;;;;;;5079965;28;25105;-73
2022/09/05 08:45:18;;;;;;;6.05;3.08;;;24.90;99.90;;;;;;5076159;28;25052;-74
2022/09/05 08:48:02;;;;;;;5.30;2.63;;;25.40;99.90;;;;;;5072881;28;25067;-75
2022/09/05 08:50:58;;;;;;;5.40;2.33;;;25.40;99.90;;;;;;5080831;28;25069;-74
2022/09/05 08:53:52;;;;;;;7.13;1.85;;;25.10;99.90;;;;;;5089667;28;25070;-74
2022/09/05 08:56:36;;;;;;;5.22;2.17;;;25.10;99.90;;;;;;5078025;28;25094;-75
2022/09/05 08:59:26;;;;;;;6.35;2.15;;;25.20;99.90;;;;;;5092348;28;25074;-75
2022/09/05 09:02:15;;;;;;;3.28;1.80;;;25.50;99.90;;;;;;5076508;28;25085;-75
2022/09/05 09:05:06;;;;;;;9.70;2.13;;;25.50;99.90;;;;;;5070655;28;25066;-73
2022/09/05 09:07:50;;;;;;;7.43;2.10;;;25.40;99.90;;;;;;5059746;28;25069;-74
2022/09/05 09:10:35;;;;;;;6.40;2.42;;;25.90;99.90;;;;;;5053619;28;25075;-73
2022/09/05 09:13:17;;;;;;;2.72;1.65;;;26.50;98.10;;;;;;5059006;28;25063;-74
2022/09/05 09:16:15;;;;;;;5.75;1.75;;;26.50;91.00;;;;;;5059716;28;25073;-73
2022/09/05 09:18:47;;;;;;;7.15;2.03;;;26.70;65.80;;;;;;5053743;28;25117;-74
2022/09/05 09:21:22;;;;;;;4.38;1.75;;;26.80;72.10;;;;;;5057966;28;25099;-75
2022/09/05 09:24:10;;;;;;;3.13;1.70;;;27.20;62.70;;;;;;5059844;28;25070;-74
2022/09/05 09:26:56;;;;;;;2.38;1.60;;;27.20;46.20;;;;;;5061144;28;25107;-73
2022/09/05 09:29:24;;;;;;;1.63;1.38;;;27.30;29.50;;;;;;5054742;28;25070;-74
2022/09/05 09:32:14;;;;;;;4.53;2.58;;;27.60;14.30;;;;;;5058886;28;25058;-73
2022/09/05 09:35:04;;;;;;;2.88;1.85;;;27.60;1.00;;;;;;5064513;28;25043;-74
2022/09/05 09:37:29;;;;;;;1.90;1.42;;;27.70;1.00;;;;;;5064305;28;25084;-75
2022/09/05 09:40:11;;;;;;;5.70;1.88;;;27.90;1.00;;;;;;5063831;28;25088;-76
2022/09/05 09:42:50;;;;;;;3.38;2.08;;;27.80;1.00;;;;;;5064563;28;25154;-75
2022/09/05 09:45:32;;;;;;;6.15;1.40;;;27.70;1.00;;;;;;5056480;28;25098;-75
2022/09/05 09:48:16;;;;;;;;;;;27.70;1.00;;;;;;5061897;28;25069;-74
2022/09/05 09:51:09;;;;;;;3.22;1.42;;;27.90;1.00;;;;;;5062541;28;24078;-75
2022/09/05 09:53:41;;;;;;;6.43;2.72;;;28.00;1.00;;;;;;5064581;28;25045;-75
2022/09/05 09:56:18;;;;;;;4.07;2.10;;;27.90;1.00;;;;;;5060077;28;25076;-74
2022/09/05 09:59:10;;;;;;;5.57;1.52;;;27.70;1.00;;;;;;5057444;28;25067;-77
2022/09/05 10:02:00;;;;;;;5.60;1.50;;;27.70;1.00;;;;;;5046810;28;25073;-75
2022/09/05 10:04:48;;;;;;;4.85;1.60;;;27.70;1.00;;;;;;5061039;28;25052;-76
2022/09/05 10:07:37;;;;;;;3.60;1.77;;;27.80;1.00;;;;;;5056477;28;25111;-76
2022/09/05 10:10:16;;;;;;;2.90;1.35;;;27.70;1.00;;;;;;5056286;28;25151;-77
2022/09/05 10:12:51;;;;;;;3.10;1.67;;;27.80;1.00;;;;;;5060644;28;25051;-77
2022/09/05 10:15:36;;;;;;;3.28;1.23;;;27.90;1.00;;;;;;5067019;28;25105;-77
2022/09/05 10:18:27;;;;;;;2.58;1.33;;;28.10;1.00;;;;;;5059820;28;25127;-72
2022/09/05 10:21:23;;;;;;;3.80;1.55;;;28.10;1.00;;;;;;5066681;28;25071;-74
2022/09/05 10:24:29;;;;;;;4.70;1.38;;;28.20;1.00;;;;;;5058702;28;25054;-75
2022/09/05 10:27:17;;;;;;;2.38;1.33;;;28.30;1.00;;;;;;5064229;28;25172;-73
2022/09/05 10:30:05;;;;;;;11.73;1.38;;;28.60;1.00;;;;;;5066468;28;25133;-75
2022/09/05 10:32:39;;;;;;;5.05;1.20;;;28.70;1.00;;;;;;5069871;28;25128;-75
2022/09/05 10:35:16;;;;;;;4.03;1.25;;;28.90;1.00;;;;;;5068147;28;25135;-75
2022/09/05 10:37:53;;;;;;;2.13;1.40;;;28.90;1.00;;;;;;5067104;28;25066;-76
2022/09/05 10:40:23;;;;;;;5.38;1.67;;;29.00;1.00;;;;;;5065315;28;25085;-77
2022/09/05 10:42:57;;;;;;;3.08;1.38;;;29.00;1.00;;;;;;5065937;28;25236;-75
2022/09/05 10:45:59;;;;;;;4.30;1.30;;;29.00;1.00;;;;;;5073018;28;25127;-75
2022/09/05 10:48:42;;;;;;;8.65;1.40;;;29.10;1.00;;;;;;5077150;28;25074;-75
2022/09/05 10:51:28;;;;;;;3.40;1.38;;;29.30;1.00;;;;;;5075649;28;25084;-78
2022/09/05 10:54:25;;;;;;;2.42;1.52;;;29.40;1.00;;;;;;5060168;28;25066;-77
2022/09/05 10:57:06;;;;;;;2.42;1.20;;;29.20;1.00;;;;;;5075049;28;25127;-76
2022/09/05 10:59:57;;;;;;;4.93;1.20;;;29.30;1.00;;;;;;5060596;28;25068;-75
2022/09/05 11:02:26;;;;;;;4.30;1.10;;;29.40;1.00;;;;;;5061826;28;25170;-77
2022/09/05 11:05:10;;;;;;;5.45;1.40;;;29.50;1.00;;;;;;5068798;28;25166;-77
2022/09/05 11:07:44;;;;;;;3.03;1.10;;;29.50;1.00;;;;;;5066799;28;25064;-76
2022/09/05 11:10:19;;;;;;;1.73;1.13;;;29.30;1.00;;;;;;5061569;28;25111;-75
2022/09/05 11:13:09;;;;;;;3.97;1.55;;;29.30;1.00;;;;;;5072362;28;25066;-75
2022/09/05 11:15:53;;;;;;;5.32;1.40;;;29.30;1.00;;;;;;5062865;28;25053;-75
2022/09/05 11:18:43;;;;;;;2.03;1.30;;;29.10;1.00;;;;;;5068370;28;25138;-77
2022/09/05 11:21:40;;;;;;;2.85;1.20;;;29.10;1.00;;;;;;5063814;28;25079;-75
2022/09/05 11:24:21;;;;;;;1.15;1.05;;;29.10;1.00;;;;;;5073122;28;25083;-77
2022/09/05 11:26:55;;;;;;;1.35;0.98;;;29.10;1.00;;;;;;5073572;28;25073;-76
2022/09/05 11:29:42;;;;;;;1.70;1.20;;;29.50;1.00;;;;;;5084463;28;25070;-75
2022/09/05 11:32:27;;;;;;;3.40;1.25;;;29.70;1.00;;;;;;5078647;28;25077;-77
2022/09/05 11:35:05;;;;;;;1.90;1.60;;;30.30;99.90;;;;;;5086783;28;25083;-77
2022/09/05 11:38:08;;;;;;;5.53;1.30;;;30.60;99.90;;;;;;5080922;28;25055;-78
2022/09/05 11:40:52;;;;;;;1.58;1.17;;;30.80;99.90;;;;;;5079199;28;25061;-76
2022/09/05 11:43:53;;;;;;;2.80;1.60;;;31.10;99.90;;;;;;5071274;28;25071;-76
2022/09/05 11:46:24;;;;;;;3.10;1.70;;;31.40;99.90;;;;;;5048973;28;25069;-75
2022/09/05 11:49:17;;;;;;;1.10;0.77;;;31.70;99.90;;;;;;5069620;28;25077;-75
2022/09/05 11:52:20;;;;;;;1.40;1.30;;;32.20;99.90;;;;;;5082868;28;25126;-77
2022/09/05 11:54:53;;;;;;;1.65;1.23;;;32.60;99.90;;;;;;5072550;28;25158;-77
2022/09/05 11:57:24;;;;;;;2.55;1.40;;;32.80;99.90;;;;;;5055760;28;25050;-76
2022/09/05 12:00:06;;;;;;;6.63;1.30;;;32.70;99.90;;;;;;5068563;28;25061;-78
2022/09/05 12:03:10;;;;;;;2.15;1.10;;;33.00;99.90;;;;;;5060886;28;25069;-75
2022/09/05 12:05:55;;;;;;;2.05;1.00;;;33.30;99.90;;;;;;5063274;28;25070;-77
2022/09/05 12:08:28;;;;;;;4.45;1.27;;;33.60;99.90;;;;;;5056699;28;25046;-77
2022/09/05 12:11:37;;;;;;;6.88;1.02;;;33.70;99.90;;;;;;5058986;28;25105;-77
2022/09/05 12:14:43;;;;;;;3.70;1.38;;;33.50;99.90;;;;;;5061517;28;25102;-76
2022/09/05 12:17:35;;;;;;;2.08;1.13;;;33.50;99.90;;;;;;5066191;28;25077;-77
2022/09/05 12:20:07;;;;;;;1.38;0.85;;;34.00;99.90;;;;;;5063614;28;25062;-77
2022/09/05 12:22:38;;;;;;;3.72;0.85;;;34.30;99.90;;;;;;5069523;28;25103;-77
2022/09/05 12:25:22;;;;;;;3.20;1.05;;;34.40;99.90;;;;;;5068214;28;25155;-76
2022/09/05 12:27:57;;;;;;;1.73;1.00;;;34.20;99.90;;;;;;5064024;28;25072;-78
2022/09/05 12:30:26;;;;;;;5.15;0.90;;;33.70;99.90;;;;;;5065074;28;25098;-76
2022/09/05 12:32:55;;;;;;;2.60;0.80;;;33.50;99.90;;;;;;5061792;28;25085;-78
2022/09/05 12:36:10;;;;;;;4.45;1.25;;;33.40;99.90;;;;;;5069813;28;25139;-76
2022/09/05 12:38:55;;;;;;;1.33;1.20;;;33.30;99.90;;;;;;5079329;28;25075;-79
2022/09/05 12:41:24;;;;;;;2.45;1.27;;;33.30;99.90;;;;;;5064470;28;25071;-77
2022/09/05 12:44:01;;;;;;;1.00;0.95;;;33.50;99.90;;;;;;5066521;28;25075;-76
2022/09/05 12:46:44;;;;;;;1.35;0.80;;;33.80;99.90;;;;;;5077410;28;25061;-76
2022/09/05 12:49:28;;;;;;;1.92;0.90;;;33.60;99.90;;;;;;5078025;28;25044;-76
2022/09/05 12:52:05;;;;;;;1.05;0.80;;;33.10;99.90;;;;;;5072196;28;25049;-79
2022/09/05 12:54:46;;;;;;;4.70;1.10;;;33.30;99.90;;;;;;5070827;28;25090;-75
2022/09/05 12:57:17;;;;;;;0.93;0.93;;;33.80;99.90;;;;;;5075731;28;25071;-75
2022/09/05 12:59:46;;;;;;;1.75;1.10;;;33.90;99.90;;;;;;5084221;28;25076;-77
2022/09/05 13:02:19;;;;;;;2.78;1.08;;;33.70;99.90;;;;;;5064924;28;25118;-74
2022/09/05 13:04:50;;;;;;;2.53;1.30;;;33.00;99.90;;;;;;5065153;28;25106;-76
2022/09/05 13:07:22;;;;;;;2.72;1.10;;;32.40;99.90;;;;;;5065000;28;25054;-76
2022/09/05 13:09:56;;;;;;;5.63;1.13;;;31.80;99.90;;;;;;5062148;28;25078;-75
2022/09/05 13:12:29;;;;;;;2.45;1.38;;;31.60;99.90;;;;;;5068515;28;25085;-77
2022/09/05 13:14:57;;;;;;;3.63;1.65;;;31.40;99.90;;;;;;5058946;28;25057;-76
2022/09/05 13:17:37;;;;;;;5.63;1.40;;;31.30;99.90;;;;;;5065689;28;25052;-74
2022/09/05 13:20:16;;;;;;;2.10;1.23;;;31.50;99.90;;;;;;5065651;28;25088;-75
2022/09/05 13:22:45;;;;;;;4.22;1.27;;;31.50;99.90;;;;;;5072130;28;25068;-76
2022/09/05 13:25:22;;;;;;;1.38;1.27;;;31.40;99.90;;;;;;5057635;28;25072;-74
2022/09/05 13:27:55;;;;;;;2.22;1.30;;;31.30;99.90;;;;;;5054525;28;25103;-77
2022/09/05 13:30:25;;;;;;;10.50;1.52;;;31.30;99.90;;;;;;5056604;28;25077;-76
2022/09/05 13:32:55;;;;;;;3.65;1.80;;;31.10;99.90;;;;;;5062838;28;25083;-74
2022/09/05 13:35:28;;;;;;;1.30;1.20;;;31.00;99.90;;;;;;5059300;28;25113;-77
2022/09/05 13:38:12;;;;;;;1.27;1.10;;;30.90;99.90;;;;;;5068705;28;25114;-78
2022/09/05 13:40:49;;;;;;;2.65;1.10;;;31.00;99.90;;;;;;5055439;28;25063;-78
2022/09/05 13:43:21;;;;;;;1.55;1.23;;;31.10;99.90;;;;;;5062016;28;25120;-76
2022/09/05 13:45:50;;;;;;;1.38;1.20;;;31.10;99.90;;;;;;5074680;28;25048;-76
2022/09/05 13:48:28;;;;;;;1.40;1.30;;;31.20;99.90;;;;;;5060381;28;25077;-77
2022/09/05 13:51:04;;;;;;;2.97;1.35;;;31.10;99.90;;;;;;5066178;28;25045;-77
2022/09/05 13:53:57;;;;;;;2.20;1.30;;;30.90;99.90;;;;;;5059555;28;25071;-76
2022/09/05 13:56:26;;;;;;;3.53;1.20;;;30.70;99.90;;;;;;5063716;28;25068;-78
2022/09/05 13:59:07;;;;;;;1.65;1.20;;;30.60;99.90;;;;;;5054658;28;25135;-76
2022/09/05 14:01:54;;;;;;;2.17;1.17;;;30.60;99.90;;;;;;5057178;28;25091;-77
2022/09/05 14:04:39;;;;;;;2.65;1.27;;;30.70;99.90;;;;;;5060774;28;25075;-78
2022/09/05 14:07:43;;;;;;;2.53;1.08;;;30.90;99.90;;;;;;5067160;28;25081;-77
2022/09/05 14:10:21;;;;;;;1.48;1.00;;;30.90;99.90;;;;;;5061009;28;25058;-77